Clements, Illinois
Current Conditions -  °F | °C
As of 12:15 PM on Thursday 29 Jan 2015 (Local Time) from KIJX Reporting Station
Overcast Overcast  
Wind Chill: 31°   Ceiling: 1900
Heat Index: 40°   Visibility: 10mi
Dew Point: 33°   Wind: 18mph
Humidity: 78%   Direction: 300°WNW
Pressure: 30.11"   Gusts: 26mph
Location:  39.5952°N, 90.058°W
Report Text: KIJX 291815Z AUTO 30016G23KT 10SM OVC019 04/01 A3011 RMK AO2 T00430007
Loading
Personal Weather Stations






























Interactive Weather Map New forecast layout! Learn more

10-Day Weather Forecast

Advertisements
Track Severe Weather on mobile